Centerbrook, Connecticut
Current Conditions -  °F | °C
As of 1:15 AM on Monday 26 Jan 2015 (Local Time) from KSNC Reporting Station
Clear Clear  
Wind Chill: 15°   Ceiling: Unl
Heat Index: 23°   Visibility: 10mi
Dew Point:   Wind: 7mph
Humidity: 50%   Direction: 30°NNE
Pressure: 30.01"   Gusts: NA
Location:  41.35°N, 72.42°W
Report Text: KSNC 260615Z AUTO 03006KT 10SM CLR M05/M14 A3001 RMK AO2
Loading
Personal Weather Stations






























Interactive Weather Map New forecast layout! Learn more

10-Day Weather Forecast

Advertisements
Track Severe Weather on mobile